createdAt,value
2017-11-14T00:02:12.573Z,94311.11
2017-11-14T00:04:40.261Z,94315.75
2017-11-14T00:07:08.105Z,94321.91
2017-11-14T00:09:35.776Z,94322.60
2017-11-14T00:12:03.476Z,94321.67
2017-11-14T00:14:31.229Z,94326.24
2017-11-14T00:16:58.943Z,94332.97
2017-11-14T00:19:26.806Z,94335.94
2017-11-14T00:21:54.481Z,94337.22
2017-11-14T00:24:22.205Z,94345.47
2017-11-14T00:26:49.942Z,94351.40
2017-11-14T00:29:17.804Z,94360.61
2017-11-14T00:31:45.546Z,94364.93
2017-11-14T00:34:13.246Z,94370.30
2017-11-14T00:36:40.916Z,94368.13
2017-11-14T00:39:08.653Z,94375.42
2017-11-14T00:41:36.341Z,94380.79
2017-11-14T00:44:04.083Z,94375.10
2017-11-14T00:46:31.823Z,94375.02
2017-11-14T00:48:59.546Z,94373.27
2017-11-14T00:51:27.236Z,94367.66
2017-11-14T00:53:54.985Z,94374.30
2017-11-14T00:56:22.679Z,94382.31
2017-11-14T00:58:50.440Z,94382.50
2017-11-14T01:01:18.175Z,94385.30
2017-11-14T01:03:45.954Z,94385.85
2017-11-14T01:06:13.667Z,94396.50
2017-11-14T01:08:41.426Z,94393.86
2017-11-14T01:11:09.172Z,94410.02
2017-11-14T01:13:36.930Z,94412.98
2017-11-14T01:16:04.667Z,94411.63
2017-11-14T01:18:32.378Z,94413.15
2017-11-14T01:21:00.066Z,94412.52
2017-11-14T01:23:27.790Z,94418.52
2017-11-14T01:25:55.530Z,94418.20
2017-11-14T01:28:23.237Z,94418.83
2017-11-14T01:30:50.961Z,94417.15
2017-11-14T01:33:18.660Z,94417.62
2017-11-14T01:35:46.420Z,94422.67
2017-11-14T01:38:14.129Z,94430.52
2017-11-14T01:40:41.926Z,94437.89
2017-11-14T01:43:09.718Z,94438.31
2017-11-14T01:45:37.417Z,94444.05
2017-11-14T01:48:05.153Z,94441.92
2017-11-14T01:50:32.845Z,94445.74
2017-11-14T01:53:00.606Z,94448.86
2017-11-14T01:55:28.284Z,94453.53
2017-11-14T01:57:57.132Z,94457.45
2017-11-14T02:00:36.733Z,94465.77
2017-11-14T02:03:04.436Z,94465.68
2017-11-14T02:05:32.216Z,94460.09
2017-11-14T02:07:59.923Z,94467.52
2017-11-14T02:10:27.745Z,94464.72
2017-11-14T02:12:55.456Z,94466.31
2017-11-14T02:15:23.218Z,94469.36
2017-11-14T02:17:51.012Z,94474.00
2017-11-14T02:20:18.721Z,94471.95
2017-11-14T02:22:46.455Z,94467.59
2017-11-14T02:25:14.278Z,94467.67
2017-11-14T02:27:42.127Z,94477.45
2017-11-14T02:30:09.937Z,94475.06
2017-11-14T02:32:37.620Z,94481.30
2017-11-14T02:35:05.378Z,94488.84
2017-11-14T02:37:33.121Z,94491.23
2017-11-14T02:40:00.886Z,94492.60
2017-11-14T02:42:28.635Z,94497.56
2017-11-14T02:44:56.358Z,94501.25
2017-11-14T02:47:24.162Z,94503.40
2017-11-14T02:49:51.970Z,94503.83
2017-11-14T02:52:19.839Z,94503.72
2017-11-14T02:54:47.572Z,94508.37
2017-11-14T02:57:15.315Z,94503.66
2017-11-14T02:59:43.024Z,94512.95
2017-11-14T03:02:10.816Z,94508.20
2017-11-14T03:04:38.540Z,94508.89
2017-11-14T03:07:06.260Z,94508.42
2017-11-14T03:09:33.972Z,94508.60
2017-11-14T03:12:01.706Z,94512.13
2017-11-14T03:14:29.435Z,94512.59
2017-11-14T03:16:57.182Z,94515.89
2017-11-14T03:19:25.027Z,94508.74
2017-11-14T03:21:52.744Z,94511.30
2017-11-14T03:24:20.708Z,94510.36
2017-11-14T03:26:48.419Z,94514.84
2017-11-14T03:29:16.160Z,94510.91
2017-11-14T03:31:43.920Z,94509.86
2017-11-14T03:34:11.626Z,94509.69
2017-11-14T03:36:39.382Z,94529.03
2017-11-14T03:39:07.086Z,94540.95
2017-11-14T03:41:34.818Z,94543.69
2017-11-14T03:44:02.510Z,94539.77
2017-11-14T03:46:30.274Z,94534.49
2017-11-14T03:48:57.957Z,94532.89
2017-11-14T03:51:25.692Z,94534.28
2017-11-14T03:53:53.499Z,94542.98
2017-11-14T03:56:21.325Z,94540.67
2017-11-14T03:58:49.079Z,94544.18
2017-11-14T04:01:16.803Z,94546.34
2017-11-14T04:03:44.553Z,94532.67
2017-11-14T04:06:12.245Z,94532.84
2017-11-14T04:08:39.999Z,94537.56
2017-11-14T04:11:07.741Z,94545.63
2017-11-14T04:13:35.560Z,94547.68
2017-11-14T04:16:03.340Z,94549.61
2017-11-14T04:18:31.143Z,94555.56
2017-11-14T04:20:58.800Z,94563.52
2017-11-14T04:23:26.524Z,94572.33
2017-11-14T04:25:54.218Z,94577.30
2017-11-14T04:28:22.152Z,94578.75
2017-11-14T04:30:49.903Z,94582.89
2017-11-14T04:33:17.625Z,94578.58
2017-11-14T04:35:45.297Z,94587.02
2017-11-14T04:38:13.041Z,94601.73
2017-11-14T04:40:40.774Z,94608.67
2017-11-14T04:43:08.458Z,94607.69
2017-11-14T04:45:36.228Z,94612.66
2017-11-14T04:48:03.908Z,94616.42
2017-11-14T04:50:31.624Z,94623.22
2017-11-14T04:52:59.384Z,94620.96
2017-11-14T04:55:27.052Z,94618.98
2017-11-14T04:57:54.742Z,94621.19
2017-11-14T05:00:22.483Z,94631.21
2017-11-14T05:02:50.250Z,94635.19
2017-11-14T05:05:17.913Z,94639.55
2017-11-14T05:07:45.603Z,94645.66
2017-11-14T05:10:13.382Z,94650.70
2017-11-14T05:12:41.076Z,94649.97
2017-11-14T05:15:08.759Z,94658.66
2017-11-14T05:17:36.545Z,94665.13
2017-11-14T05:20:04.453Z,94665.50
2017-11-14T05:22:32.156Z,94671.72
2017-11-14T05:24:59.824Z,94673.14
2017-11-14T05:27:27.531Z,94681.36
2017-11-14T05:29:55.246Z,94681.14
2017-11-14T05:32:22.987Z,94689.44
2017-11-14T05:34:50.652Z,94689.17
2017-11-14T05:37:18.341Z,94697.13
2017-11-14T05:39:46.068Z,94696.80
2017-11-14T05:42:13.756Z,94696.95
2017-11-14T05:44:41.528Z,94699.94
2017-11-14T05:47:09.326Z,94698.77
2017-11-14T05:49:37.024Z,94707.61
2017-11-14T05:52:04.775Z,94708.30
2017-11-14T05:54:32.510Z,94715.31
2017-11-14T05:57:00.199Z,94717.81
2017-11-14T05:59:27.921Z,94716.44
2017-11-14T06:01:55.604Z,94718.83
2017-11-14T06:04:23.400Z,94724.20
2017-11-14T06:06:51.100Z,94725.08
2017-11-14T06:09:18.828Z,94730.55
2017-11-14T06:11:46.507Z,94735.95
2017-11-14T06:14:14.196Z,94736.50
2017-11-14T06:16:42.048Z,94740.31
2017-11-14T06:19:09.739Z,94742.22
2017-11-14T06:21:37.420Z,94740.14
2017-11-14T06:24:05.189Z,94751.63
2017-11-14T06:26:32.864Z,94754.43
2017-11-14T06:29:00.615Z,94749.30
2017-11-14T06:31:28.360Z,94759.66
2017-11-14T06:33:56.104Z,94756.44
2017-11-14T06:36:23.803Z,94759.52
2017-11-14T06:38:51.503Z,94764.22
2017-11-14T06:41:19.299Z,94765.98
2017-11-14T06:43:47.233Z,94786.09
2017-11-14T06:46:14.929Z,94790.14
2017-11-14T06:48:42.696Z,94794.55
2017-11-14T06:51:10.418Z,94791.27
2017-11-14T06:53:38.153Z,94796.64
2017-11-14T06:56:05.950Z,94797.43
2017-11-14T06:58:33.727Z,94804.65
2017-11-14T07:01:01.473Z,94806.63
2017-11-14T07:03:29.230Z,94813.58
2017-11-14T07:05:56.983Z,94815.05
2017-11-14T07:08:24.710Z,94814.38
2017-11-14T07:10:52.436Z,94817.95
2017-11-14T07:13:20.114Z,94829.09
2017-11-14T07:15:47.865Z,94827.91
2017-11-14T07:18:15.574Z,94822.21
2017-11-14T07:20:43.337Z,94817.21
2017-11-14T07:23:11.917Z,94822.48
2017-11-14T07:25:39.668Z,94830.94
2017-11-14T07:28:07.418Z,94833.32
2017-11-14T07:30:35.611Z,94839.52
2017-11-14T07:33:03.333Z,94838.56
2017-11-14T07:35:31.046Z,94841.84
2017-11-14T07:38:00.147Z,94837.19
2017-11-14T07:40:27.846Z,94841.18
2017-11-14T07:42:55.597Z,94840.28
2017-11-14T07:45:23.337Z,94844.47
2017-11-14T07:47:51.009Z,94850.09
2017-11-14T07:50:18.829Z,94844.02
2017-11-14T07:52:46.730Z,94852.31
2017-11-14T07:55:14.485Z,94849.41
2017-11-14T07:57:42.192Z,94854.41
2017-11-14T08:00:09.987Z,94850.38
2017-11-14T08:02:37.732Z,94849.44
2017-11-14T08:05:05.456Z,94849.51
2017-11-14T08:07:33.255Z,94857.17
2017-11-14T08:10:01.392Z,94857.28
2017-11-14T08:12:30.351Z,94857.47
2017-11-14T08:14:58.093Z,94854.38
2017-11-14T08:17:25.837Z,94859.78
2017-11-14T08:19:53.588Z,94853.41
2017-11-14T08:22:21.727Z,94859.97
2017-11-14T08:24:49.446Z,94855.24
2017-11-14T08:27:17.129Z,94857.69
2017-11-14T08:29:44.881Z,94857.80
2017-11-14T08:32:12.578Z,94859.46
2017-11-14T08:34:40.267Z,94854.50
2017-11-14T08:37:08.140Z,94862.17
2017-11-14T08:39:35.921Z,94862.44
2017-11-14T08:42:03.691Z,94862.83
2017-11-14T08:44:31.400Z,94864.09
2017-11-14T08:46:59.141Z,94857.31
2017-11-14T08:49:26.891Z,94860.81
2017-11-14T08:51:54.698Z,94858.30
2017-11-14T08:54:22.393Z,94861.08
2017-11-14T08:56:50.160Z,94860.56
2017-11-14T08:59:17.992Z,94864.55
2017-11-14T09:01:45.700Z,94859.05
2017-11-14T09:04:13.407Z,94866.17
2017-11-14T09:06:41.161Z,94868.09
2017-11-14T09:09:08.983Z,94865.63
2017-11-14T09:11:36.732Z,94867.94
2017-11-14T09:14:04.587Z,94860.53
2017-11-14T09:16:32.400Z,94867.66
2017-11-14T09:19:00.220Z,94868.98
2017-11-14T09:21:28.000Z,94869.98
2017-11-14T09:23:55.836Z,94871.91
2017-11-14T09:26:23.597Z,94873.42
2017-11-14T09:28:51.403Z,94875.97
2017-11-14T09:31:19.162Z,94872.11
2017-11-14T09:33:46.926Z,94870.03
2017-11-14T09:36:14.691Z,94874.52
2017-11-14T09:38:42.402Z,94871.91
2017-11-14T09:41:10.198Z,94871.61
2017-11-14T09:43:38.385Z,94876.64
2017-11-14T09:46:06.174Z,94876.82
2017-11-14T09:48:33.898Z,94870.78
2017-11-14T09:51:01.689Z,94867.85
2017-11-14T09:53:29.626Z,94870.30
2017-11-14T09:55:57.762Z,94859.78
2017-11-14T09:58:25.602Z,94860.47
2017-11-14T10:00:53.405Z,94856.68
2017-11-14T10:03:21.171Z,94860.98
2017-11-14T10:05:48.949Z,94855.28
2017-11-14T10:08:16.710Z,94844.92
2017-11-14T10:10:44.483Z,94844.45
2017-11-14T10:13:12.218Z,94843.25
2017-11-14T10:15:40.002Z,94853.26
2017-11-14T10:18:07.727Z,94857.06
2017-11-14T10:20:35.483Z,94859.98
2017-11-14T10:23:03.297Z,94859.25
2017-11-14T10:25:31.227Z,94855.73
2017-11-14T10:27:59.051Z,94849.21
2017-11-14T10:30:26.841Z,94860.58
2017-11-14T10:32:54.625Z,94858.53
2017-11-14T10:35:22.419Z,94851.55
2017-11-14T10:37:50.138Z,94846.92
2017-11-14T10:40:17.946Z,94852.77
2017-11-14T10:42:45.786Z,94852.95
2017-11-14T10:45:13.606Z,94848.75
2017-11-14T10:47:41.362Z,94850.97
2017-11-14T10:50:09.146Z,94847.00
2017-11-14T10:52:37.073Z,94849.36
2017-11-14T10:55:04.936Z,94846.97
2017-11-14T10:57:32.680Z,94852.22
2017-11-14T11:00:00.493Z,94854.49
2017-11-14T11:02:28.214Z,94851.77
2017-11-14T11:04:56.029Z,94861.64
2017-11-14T11:07:23.828Z,94867.19
2017-11-14T11:09:51.595Z,94858.94
2017-11-14T11:12:19.403Z,94859.55
2017-11-14T11:14:47.140Z,94854.94
2017-11-14T11:17:14.928Z,94849.13
2017-11-14T11:19:42.652Z,94846.69
2017-11-14T11:22:10.654Z,94838.52
2017-11-14T11:24:38.393Z,94839.42
2017-11-14T11:27:06.160Z,94838.88
2017-11-14T11:29:33.977Z,94841.77
2017-11-14T11:32:01.887Z,94839.81
2017-11-14T11:34:29.664Z,94840.81
2017-11-14T11:36:57.466Z,94841.78
2017-11-14T11:39:25.206Z,94840.85
2017-11-14T11:41:52.946Z,94838.94
2017-11-14T11:44:20.738Z,94842.83
2017-11-14T11:46:48.512Z,94839.09
2017-11-14T11:49:17.251Z,94836.62
2017-11-14T11:51:45.040Z,94840.03
2017-11-14T11:54:12.908Z,94829.75
2017-11-14T11:56:40.759Z,94840.01
2017-11-14T11:59:08.525Z,94832.36
2017-11-14T12:01:36.356Z,94827.74
2017-11-14T12:04:04.156Z,94824.51
2017-11-14T12:06:32.011Z,94823.17
2017-11-14T12:08:59.802Z,94824.70
2017-11-14T12:11:28.718Z,94813.97
2017-11-14T12:13:56.671Z,94821.16
2017-11-14T12:16:24.465Z,94818.34
2017-11-14T12:18:52.297Z,94818.36
2017-11-14T12:21:20.206Z,94820.47
2017-11-14T12:23:48.027Z,94821.78
2017-11-14T12:26:15.785Z,94823.06
2017-11-14T12:28:43.602Z,94820.20
2017-11-14T12:31:11.448Z,94814.38
2017-11-14T12:33:39.219Z,94810.65
2017-11-14T12:36:07.068Z,94805.84
2017-11-14T12:38:34.832Z,94802.53
2017-11-14T12:41:02.578Z,94808.11
2017-11-14T12:43:30.394Z,94814.80
2017-11-14T12:45:58.223Z,94811.44
2017-11-14T12:48:26.091Z,94806.52
2017-11-14T12:50:53.859Z,94806.82
2017-11-14T12:53:21.557Z,94802.28
2017-11-14T12:55:49.319Z,94804.02
2017-11-14T12:58:17.039Z,94795.33
2017-11-14T13:00:44.983Z,94805.39
2017-11-14T13:03:12.739Z,94808.41
2017-11-14T13:05:40.447Z,94800.41
2017-11-14T13:08:08.320Z,94800.66
2017-11-14T13:10:36.080Z,94807.25
2017-11-14T13:13:03.807Z,94803.92
2017-11-14T13:15:31.638Z,94798.09
2017-11-14T13:17:59.385Z,94799.12
2017-11-14T13:20:27.222Z,94794.75
2017-11-14T13:22:55.056Z,94787.63
2017-11-14T13:25:22.813Z,94792.07
2017-11-14T13:27:50.599Z,94785.38
2017-11-14T13:30:19.455Z,94789.50
2017-11-14T13:32:47.306Z,94782.73
2017-11-14T13:35:15.141Z,94782.59
2017-11-14T13:37:42.949Z,94792.41
2017-11-14T13:40:10.810Z,94795.47
2017-11-14T13:42:38.609Z,94797.27
2017-11-14T13:45:06.363Z,94793.69
2017-11-14T13:47:34.087Z,94807.34
2017-11-14T13:50:01.935Z,94801.29
2017-11-14T13:52:29.647Z,94810.72
2017-11-14T13:54:57.502Z,94811.73
2017-11-14T13:57:25.217Z,94810.86
2017-11-14T13:59:53.008Z,94808.79
2017-11-14T14:02:20.734Z,94810.45
2017-11-14T14:04:48.530Z,94809.54
2017-11-14T14:07:16.287Z,94806.83
2017-11-14T14:09:44.082Z,94805.35
2017-11-14T14:12:11.839Z,94808.36
2017-11-14T14:14:39.933Z,94808.45
2017-11-14T14:17:07.816Z,94805.98
2017-11-14T14:19:35.517Z,94797.09
2017-11-14T14:22:03.291Z,94802.85
2017-11-14T14:24:31.081Z,94800.26
2017-11-14T14:26:58.786Z,94793.47
2017-11-14T14:29:26.549Z,94805.38
2017-11-14T14:31:54.270Z,94797.95
2017-11-14T14:34:22.080Z,94804.02
2017-11-14T14:36:49.852Z,94803.45
2017-11-14T14:39:17.533Z,94804.84
2017-11-14T14:41:45.320Z,94805.95
2017-11-14T14:44:13.520Z,94807.81
2017-11-14T14:46:41.289Z,94814.77
2017-11-14T14:49:09.231Z,94813.88
2017-11-14T14:51:36.934Z,94814.38
2017-11-14T14:54:04.712Z,94813.53
2017-11-14T14:56:32.399Z,94812.48
2017-11-14T14:59:00.214Z,94819.27
2017-11-14T15:01:28.036Z,94827.45
2017-11-14T15:03:55.788Z,94820.30
2017-11-14T15:06:23.602Z,94820.63
2017-11-14T15:08:52.310Z,94826.35
2017-11-14T15:11:20.126Z,94830.52
2017-11-14T15:13:47.881Z,94828.84
2017-11-14T15:16:15.659Z,94842.09
2017-11-14T15:18:43.486Z,94842.49
2017-11-14T15:21:11.182Z,94853.78
2017-11-14T15:23:38.934Z,94851.92
2017-11-14T15:26:06.666Z,94858.86
2017-11-14T15:28:34.390Z,94873.13
2017-11-14T15:31:02.206Z,94869.53
2017-11-14T15:33:29.960Z,94873.53
2017-11-14T15:35:57.667Z,94875.58
2017-11-14T15:38:25.509Z,94881.06
2017-11-14T15:40:54.122Z,94881.66
2017-11-14T15:43:21.829Z,94876.91
2017-11-14T15:45:49.569Z,94892.96
2017-11-14T15:48:17.353Z,94893.44
2017-11-14T15:50:45.166Z,94900.96
2017-11-14T15:53:12.933Z,94906.77
2017-11-14T15:55:40.748Z,94902.41
2017-11-14T15:58:08.527Z,94911.80
2017-11-14T16:00:36.241Z,94912.14
2017-11-14T16:03:04.044Z,94914.95
2017-11-14T16:05:32.114Z,94918.22
2017-11-14T16:07:59.880Z,94919.25
2017-11-14T16:10:27.674Z,94918.16
2017-11-14T16:12:55.381Z,94929.88
2017-11-14T16:15:23.133Z,94930.78
2017-11-14T16:17:50.912Z,94933.16
2017-11-14T16:20:18.659Z,94933.83
2017-11-14T16:22:46.527Z,94938.66
2017-11-14T16:25:14.341Z,94944.25
2017-11-14T16:27:42.123Z,94939.23
2017-11-14T16:30:09.833Z,94938.42
2017-11-14T16:32:38.301Z,94943.98
2017-11-14T16:35:06.053Z,94941.47
2017-11-14T16:37:33.787Z,94948.94
2017-11-14T16:40:01.620Z,94955.70
2017-11-14T16:42:29.364Z,94964.41
2017-11-14T16:44:57.213Z,94970.62
2017-11-14T16:47:24.963Z,94975.26
2017-11-14T16:49:52.855Z,94981.66
2017-11-14T16:52:20.788Z,94987.17
2017-11-14T16:54:49.518Z,94993.58
2017-11-14T16:57:19.284Z,94987.55
2017-11-14T16:59:47.013Z,94982.56
2017-11-14T17:02:14.810Z,94987.07
2017-11-14T17:04:42.655Z,94987.28
2017-11-14T17:07:10.495Z,94991.98
2017-11-14T17:09:38.621Z,94997.28
2017-11-14T17:12:06.455Z,95005.72
2017-11-14T17:14:34.265Z,95005.44
2017-11-14T17:17:02.017Z,95012.85
2017-11-14T17:19:29.734Z,95010.03
2017-11-14T17:21:57.544Z,95020.59
2017-11-14T17:24:25.319Z,95023.55
2017-11-14T17:26:54.026Z,95025.31
2017-11-14T17:29:21.808Z,95025.70
2017-11-14T17:31:49.523Z,95023.41
2017-11-14T17:34:17.289Z,95021.06
2017-11-14T17:36:45.084Z,95031.37
2017-11-14T17:39:12.859Z,95029.58
2017-11-14T17:41:40.608Z,95033.05
2017-11-14T17:44:08.593Z,95028.15
2017-11-14T17:46:36.291Z,95025.70
2017-11-14T17:49:04.097Z,95028.02
2017-11-14T17:51:32.204Z,95032.99
2017-11-14T17:53:59.940Z,95044.26
2017-11-14T17:56:27.721Z,95041.97
2017-11-14T17:58:55.496Z,95048.13
2017-11-14T18:01:23.243Z,95038.20
2017-11-14T18:03:51.048Z,95043.34
2017-11-14T18:06:18.817Z,95043.31
2017-11-14T18:08:46.673Z,95043.92
2017-11-14T18:11:14.392Z,95047.78
2017-11-14T18:13:42.137Z,95046.30
2017-11-14T18:16:09.842Z,95046.68
2017-11-14T18:18:37.781Z,95051.66
2017-11-14T18:21:05.566Z,95041.72
2017-11-14T18:23:33.505Z,95046.41
2017-11-14T18:26:01.549Z,95054.14
2017-11-14T18:28:29.640Z,95052.98
2017-11-14T18:30:58.999Z,95057.86
2017-11-14T18:33:26.765Z,95058.00
2017-11-14T18:35:54.654Z,95053.98
2017-11-14T18:38:22.515Z,95056.38
2017-11-14T18:40:50.383Z,95056.41
2017-11-14T18:43:18.158Z,95054.23
2017-11-14T18:45:45.981Z,95048.86
2017-11-14T18:48:13.775Z,95051.20
2017-11-14T18:50:41.566Z,95052.42
2017-11-14T18:53:09.328Z,95055.78
2017-11-14T18:55:37.103Z,95056.19
2017-11-14T18:58:04.893Z,95065.75
2017-11-14T19:00:32.668Z,95067.50
2017-11-14T19:03:00.364Z,95072.20
2017-11-14T19:05:28.169Z,95077.59
2017-11-14T19:07:56.561Z,95081.27
2017-11-14T19:10:24.413Z,95086.56
2017-11-14T19:12:52.267Z,95091.15
2017-11-14T19:15:20.103Z,95092.91
2017-11-14T19:17:47.957Z,95087.93
2017-11-14T19:20:15.801Z,95096.88
2017-11-14T19:22:43.870Z,95090.21
2017-11-14T19:25:11.673Z,95091.47
2017-11-14T19:27:39.509Z,95092.86
2017-11-14T19:30:07.449Z,95092.86
2017-11-14T19:32:35.505Z,95094.22
2017-11-14T19:35:03.471Z,95101.61
2017-11-14T19:37:32.048Z,95102.13
2017-11-14T19:39:59.904Z,95110.37
2017-11-14T19:42:28.273Z,95107.14
2017-11-14T19:44:56.021Z,95104.47
2017-11-14T19:47:23.740Z,95103.13
2017-11-14T19:49:51.629Z,95101.92
2017-11-14T19:52:19.471Z,95098.16
2017-11-14T19:54:47.264Z,95102.33
2017-11-14T19:57:15.106Z,95104.29
2017-11-14T19:59:42.992Z,95115.07
2017-11-14T20:02:10.928Z,95120.34
2017-11-14T20:04:40.138Z,95125.71
2017-11-14T20:07:08.436Z,95122.73
2017-11-14T20:09:36.474Z,95120.73
2017-11-14T20:12:05.684Z,95118.00
2017-11-14T20:14:33.811Z,95118.28
2017-11-14T20:17:01.831Z,95120.62
2017-11-14T20:19:30.044Z,95126.03
2017-11-14T20:21:58.085Z,95128.83
2017-11-14T20:24:25.910Z,95130.67
2017-11-14T20:26:53.744Z,95124.69
2017-11-14T20:29:22.402Z,95129.39
2017-11-14T20:31:50.351Z,95128.27
2017-11-14T20:34:18.097Z,95138.32
2017-11-14T20:36:46.359Z,95142.22
2017-11-14T20:39:14.222Z,95136.48
2017-11-14T20:41:41.972Z,95135.92
2017-11-14T20:44:10.668Z,95138.35
2017-11-14T20:46:38.525Z,95133.50
2017-11-14T20:49:06.754Z,95133.78
2017-11-14T20:51:34.889Z,95135.65
2017-11-14T20:54:03.375Z,95144.66
2017-11-14T20:56:31.598Z,95143.05
2017-11-14T20:58:59.381Z,95147.03
2017-11-14T21:01:28.408Z,95148.66
2017-11-14T21:03:56.210Z,95138.70
2017-11-14T21:06:23.937Z,95138.10
2017-11-14T21:08:51.784Z,95136.55
2017-11-14T21:11:19.603Z,95129.39
2017-11-14T21:13:47.334Z,95137.31
2017-11-14T21:16:15.091Z,95135.08
2017-11-14T21:18:42.929Z,95135.36
2017-11-14T21:21:10.691Z,95133.22
2017-11-14T21:23:38.499Z,95136.95
2017-11-14T21:26:06.279Z,95138.16
2017-11-14T21:28:34.059Z,95139.95
2017-11-14T21:31:01.928Z,95142.50
2017-11-14T21:33:29.860Z,95142.02
2017-11-14T21:35:57.633Z,95153.80
2017-11-14T21:38:25.515Z,95155.41
2017-11-14T21:40:53.264Z,95159.16
2017-11-14T21:43:21.041Z,95172.71
2017-11-14T21:45:48.747Z,95172.12
2017-11-14T21:48:16.548Z,95177.92
2017-11-14T21:50:44.341Z,95182.74
2017-11-14T21:53:12.038Z,95180.42
2017-11-14T21:55:39.780Z,95166.09
2017-11-14T21:58:07.535Z,95163.08
2017-11-14T22:00:35.337Z,95166.06
2017-11-14T22:03:03.046Z,95165.10
2017-11-14T22:05:30.817Z,95165.19
2017-11-14T22:07:58.580Z,95156.50
2017-11-14T22:10:26.298Z,95161.00
2017-11-14T22:12:54.016Z,95159.60
2017-11-14T22:15:21.753Z,95160.77
2017-11-14T22:17:49.449Z,95175.95
2017-11-14T22:20:17.291Z,95167.67
2017-11-14T22:22:45.110Z,95168.73
2017-11-14T22:25:12.847Z,95165.66
2017-11-14T22:27:40.566Z,95164.95
2017-11-14T22:30:08.384Z,95161.84
2017-11-14T22:32:36.105Z,95155.16
2017-11-14T22:35:03.890Z,95151.92
2017-11-14T22:37:31.596Z,95148.44
2017-11-14T22:39:59.345Z,95159.45
2017-11-14T22:42:27.023Z,95158.47
2017-11-14T22:44:54.787Z,95158.23
2017-11-14T22:47:22.533Z,95163.28
2017-11-14T22:49:50.283Z,95167.28
2017-11-14T22:52:18.030Z,95168.78
2017-11-14T22:54:45.742Z,95174.70
2017-11-14T22:57:13.463Z,95169.95
2017-11-14T22:59:41.215Z,95173.32
2017-11-14T23:02:09.018Z,95172.22
2017-11-14T23:04:36.705Z,95167.66
2017-11-14T23:07:04.509Z,95161.85
2017-11-14T23:09:32.258Z,95158.95
2017-11-14T23:11:59.956Z,95161.77
2017-11-14T23:14:27.749Z,95159.88
2017-11-14T23:16:55.434Z,95157.21
2017-11-14T23:19:23.182Z,95155.98
2017-11-14T23:21:50.884Z,95152.69
2017-11-14T23:24:18.633Z,95146.67
2017-11-14T23:26:46.314Z,95151.49
2017-11-14T23:29:14.004Z,95154.61
2017-11-14T23:31:42.404Z,95160.45
2017-11-14T23:34:10.188Z,95156.69
2017-11-14T23:36:37.929Z,95155.36
2017-11-14T23:39:05.731Z,95145.58
2017-11-14T23:41:33.460Z,95137.36
2017-11-14T23:44:01.156Z,95140.01
2017-11-14T23:46:28.852Z,95140.44
2017-11-14T23:48:56.585Z,95147.77
2017-11-14T23:51:24.277Z,95142.73
2017-11-14T23:53:52.556Z,95139.25
2017-11-14T23:56:20.257Z,95143.33
2017-11-14T23:58:48.001Z,95138.87
